sensor_id;sensor_type;location;lat;lon;timestamp;temperature;humidity
70830;SHT30;58451;51.550;7.208;2023-03-16T00:01:30;2.77;67.37
70830;SHT30;58451;51.550;7.208;2023-03-16T00:03:01;2.76;67.42
70830;SHT30;58451;51.550;7.208;2023-03-16T00:04:34;2.75;67.55
70830;SHT30;58451;51.550;7.208;2023-03-16T00:06:08;2.76;67.73
70830;SHT30;58451;51.550;7.208;2023-03-16T00:07:40;2.76;67.75
70830;SHT30;58451;51.550;7.208;2023-03-16T00:09:13;2.76;67.60
70830;SHT30;58451;51.550;7.208;2023-03-16T00:10:45;2.76;67.03
70830;SHT30;58451;51.550;7.208;2023-03-16T00:12:17;2.81;67.28
70830;SHT30;58451;51.550;7.208;2023-03-16T00:13:50;2.83;67.07
70830;SHT30;58451;51.550;7.208;2023-03-16T00:15:22;2.85;66.88
70830;SHT30;58451;51.550;7.208;2023-03-16T00:16:54;2.85;66.97
70830;SHT30;58451;51.550;7.208;2023-03-16T00:18:27;2.87;66.65
70830;SHT30;58451;51.550;7.208;2023-03-16T00:19:59;2.89;67.10
70830;SHT30;58451;51.550;7.208;2023-03-16T00:21:33;2.90;67.17
70830;SHT30;58451;51.550;7.208;2023-03-16T00:23:05;2.91;67.18
70830;SHT30;58451;51.550;7.208;2023-03-16T00:24:37;2.90;67.13
70830;SHT30;58451;51.550;7.208;2023-03-16T00:26:09;2.90;67.18
70830;SHT30;58451;51.550;7.208;2023-03-16T00:27:43;2.89;67.33
70830;SHT30;58451;51.550;7.208;2023-03-16T00:29:15;2.88;66.67
70830;SHT30;58451;51.550;7.208;2023-03-16T00:30:47;2.90;66.73
70830;SHT30;58451;51.550;7.208;2023-03-16T00:32:20;2.92;66.90
70830;SHT30;58451;51.550;7.208;2023-03-16T00:33:54;2.92;66.97
70830;SHT30;58451;51.550;7.208;2023-03-16T00:35:26;2.92;67.07
70830;SHT30;58451;51.550;7.208;2023-03-16T00:36:58;2.92;66.87
70830;SHT30;58451;51.550;7.208;2023-03-16T00:38:30;2.92;66.95
70830;SHT30;58451;51.550;7.208;2023-03-16T00:40:06;2.91;66.80
70830;SHT30;58451;51.550;7.208;2023-03-16T00:41:39;2.93;66.90
70830;SHT30;58451;51.550;7.208;2023-03-16T00:43:11;2.93;67.17
70830;SHT30;58451;51.550;7.208;2023-03-16T00:44:43;2.94;67.33
70830;SHT30;58451;51.550;7.208;2023-03-16T00:46:16;2.94;67.35
70830;SHT30;58451;51.550;7.208;2023-03-16T00:47:48;2.94;67.32
70830;SHT30;58451;51.550;7.208;2023-03-16T00:49:20;2.94;67.22
70830;SHT30;58451;51.550;7.208;2023-03-16T00:50:52;2.95;66.97
70830;SHT30;58451;51.550;7.208;2023-03-16T00:52:25;2.97;67.02
70830;SHT30;58451;51.550;7.208;2023-03-16T00:53:58;3.00;67.00
70830;SHT30;58451;51.550;7.208;2023-03-16T00:55:30;3.01;66.77
70830;SHT30;58451;51.550;7.208;2023-03-16T00:57:02;3.03;66.97
70830;SHT30;58451;51.550;7.208;2023-03-16T00:58:36;3.07;67.08
70830;SHT30;58451;51.550;7.208;2023-03-16T01:00:10;3.11;67.03
70830;SHT30;58451;51.550;7.208;2023-03-16T01:01:45;3.14;66.85
70830;SHT30;58451;51.550;7.208;2023-03-16T01:03:17;3.15;67.00
70830;SHT30;58451;51.550;7.208;2023-03-16T01:04:50;3.18;66.85
70830;SHT30;58451;51.550;7.208;2023-03-16T01:06:25;3.20;66.97
70830;SHT30;58451;51.550;7.208;2023-03-16T01:07:56;3.22;66.92
70830;SHT30;58451;51.550;7.208;2023-03-16T01:09:30;3.21;66.90
70830;SHT30;58451;51.550;7.208;2023-03-16T01:11:08;3.22;66.77
70830;SHT30;58451;51.550;7.208;2023-03-16T01:12:47;3.24;66.88
70830;SHT30;58451;51.550;7.208;2023-03-16T01:14:20;3.24;66.85
70830;SHT30;58451;51.550;7.208;2023-03-16T01:15:52;3.27;66.80
70830;SHT30;58451;51.550;7.208;2023-03-16T01:17:24;3.30;66.82
70830;SHT30;58451;51.550;7.208;2023-03-16T01:18:57;3.32;66.63
70830;SHT30;58451;51.550;7.208;2023-03-16T01:20:28;3.33;66.58
70830;SHT30;58451;51.550;7.208;2023-03-16T01:22:01;3.35;66.47
70830;SHT30;58451;51.550;7.208;2023-03-16T01:23:36;3.37;66.77
70830;SHT30;58451;51.550;7.208;2023-03-16T01:25:08;3.39;66.82
70830;SHT30;58451;51.550;7.208;2023-03-16T01:26:44;3.40;66.88
70830;SHT30;58451;51.550;7.208;2023-03-16T01:28:20;3.40;66.85
70830;SHT30;58451;51.550;7.208;2023-03-16T01:29:55;3.41;66.32
70830;SHT30;58451;51.550;7.208;2023-03-16T01:31:27;3.42;66.58
70830;SHT30;58451;51.550;7.208;2023-03-16T01:33:00;3.45;66.60
70830;SHT30;58451;51.550;7.208;2023-03-16T01:34:32;3.45;66.70
70830;SHT30;58451;51.550;7.208;2023-03-16T01:38:00;3.48;66.60
70830;SHT30;58451;51.550;7.208;2023-03-16T01:39:32;3.50;65.98
70830;SHT30;58451;51.550;7.208;2023-03-16T01:41:05;3.54;66.00
70830;SHT30;58451;51.550;7.208;2023-03-16T01:42:45;3.57;66.18
70830;SHT30;58451;51.550;7.208;2023-03-16T01:44:22;3.61;65.78
70830;SHT30;58451;51.550;7.208;2023-03-16T01:47:44;3.66;66.10
70830;SHT30;58451;51.550;7.208;2023-03-16T01:49:28;3.67;65.95
70830;SHT30;58451;51.550;7.208;2023-03-16T01:51:10;3.71;65.52
70830;SHT30;58451;51.550;7.208;2023-03-16T01:52:47;3.74;65.33
70830;SHT30;58451;51.550;7.208;2023-03-16T01:54:24;3.76;65.53
70830;SHT30;58451;51.550;7.208;2023-03-16T01:56:03;3.78;65.48
70830;SHT30;58451;51.550;7.208;2023-03-16T01:57:41;3.80;65.72
70830;SHT30;58451;51.550;7.208;2023-03-16T01:59:17;3.81;65.68
70830;SHT30;58451;51.550;7.208;2023-03-16T02:00:55;3.82;64.93
70830;SHT30;58451;51.550;7.208;2023-03-16T02:02:29;3.81;64.82
70830;SHT30;58451;51.550;7.208;2023-03-16T02:04:12;3.83;64.91
70830;SHT30;58451;51.550;7.208;2023-03-16T02:06:03;3.84;64.47
70830;SHT30;58451;51.550;7.208;2023-03-16T02:07:53;3.86;64.95
70830;SHT30;58451;51.550;7.208;2023-03-16T02:09:29;3.84;64.50
70830;SHT30;58451;51.550;7.208;2023-03-16T02:11:02;3.82;64.88
70830;SHT30;58451;51.550;7.208;2023-03-16T02:12:46;3.81;64.65
70830;SHT30;58451;51.550;7.208;2023-03-16T02:14:18;3.81;65.07
70830;SHT30;58451;51.550;7.208;2023-03-16T02:15:52;3.79;65.18
70830;SHT30;58451;51.550;7.208;2023-03-16T02:17:27;3.77;65.05
70830;SHT30;58451;51.550;7.208;2023-03-16T02:19:07;3.75;64.98
70830;SHT30;58451;51.550;7.208;2023-03-16T02:22:44;3.71;65.02
70830;SHT30;58451;51.550;7.208;2023-03-16T02:24:20;3.69;65.43
70830;SHT30;58451;51.550;7.208;2023-03-16T02:25:58;3.68;65.23
70830;SHT30;58451;51.550;7.208;2023-03-16T02:32:03;3.63;64.95
70830;SHT30;58451;51.550;7.208;2023-03-16T02:33:36;3.62;64.53
70830;SHT30;58451;51.550;7.208;2023-03-16T02:35:11;3.62;64.42
70830;SHT30;58451;51.550;7.208;2023-03-16T02:48:24;3.52;64.53
70830;SHT30;58451;51.550;7.208;2023-03-16T02:50:03;3.51;64.40
70830;SHT30;58451;51.550;7.208;2023-03-16T02:51:37;3.51;64.50
70830;SHT30;58451;51.550;7.208;2023-03-16T02:53:09;3.49;64.80
70830;SHT30;58451;51.550;7.208;2023-03-16T02:54:42;3.49;64.88
70830;SHT30;58451;51.550;7.208;2023-03-16T02:56:14;3.49;65.02
70830;SHT30;58451;51.550;7.208;2023-03-16T02:57:46;3.48;65.20
70830;SHT30;58451;51.550;7.208;2023-03-16T02:59:19;3.49;65.02
70830;SHT30;58451;51.550;7.208;2023-03-16T03:00:51;3.49;64.52
70830;SHT30;58451;51.550;7.208;2023-03-16T03:02:23;3.48;64.85
70830;SHT30;58451;51.550;7.208;2023-03-16T03:03:55;3.50;65.07
70830;SHT30;58451;51.550;7.208;2023-03-16T03:05:28;3.49;64.20
70830;SHT30;58451;51.550;7.208;2023-03-16T03:07:00;3.51;64.10
70830;SHT30;58451;51.550;7.208;2023-03-16T03:08:38;3.53;64.05
70830;SHT30;58451;51.550;7.208;2023-03-16T03:10:10;3.55;64.37
70830;SHT30;58451;51.550;7.208;2023-03-16T03:11:41;3.55;64.75
70830;SHT30;58451;51.550;7.208;2023-03-16T03:13:13;3.56;64.90
70830;SHT30;58451;51.550;7.208;2023-03-16T03:14:45;3.57;64.87
70830;SHT30;58451;51.550;7.208;2023-03-16T03:16:19;3.58;64.85
70830;SHT30;58451;51.550;7.208;2023-03-16T03:17:51;3.59;64.48
70830;SHT30;58451;51.550;7.208;2023-03-16T03:19:24;3.61;64.78
70830;SHT30;58451;51.550;7.208;2023-03-16T03:20:56;3.62;64.90
70830;SHT30;58451;51.550;7.208;2023-03-16T03:22:27;3.62;64.62
70830;SHT30;58451;51.550;7.208;2023-03-16T03:23:59;3.63;63.40
70830;SHT30;58451;51.550;7.208;2023-03-16T03:25:31;3.64;64.00
70830;SHT30;58451;51.550;7.208;2023-03-16T03:27:05;3.67;64.27
70830;SHT30;58451;51.550;7.208;2023-03-16T03:28:38;3.67;63.95
70830;SHT30;58451;51.550;7.208;2023-03-16T03:30:14;3.68;64.13
70830;SHT30;58451;51.550;7.208;2023-03-16T03:31:51;3.68;62.83
70830;SHT30;58451;51.550;7.208;2023-03-16T03:33:22;3.72;63.37
70830;SHT30;58451;51.550;7.208;2023-03-16T03:34:54;3.73;63.85
70830;SHT30;58451;51.550;7.208;2023-03-16T03:36:27;3.73;63.27
70830;SHT30;58451;51.550;7.208;2023-03-16T03:37:59;3.74;63.93
70830;SHT30;58451;51.550;7.208;2023-03-16T03:39:31;3.74;63.43
70830;SHT30;58451;51.550;7.208;2023-03-16T03:41:04;3.76;63.62
70830;SHT30;58451;51.550;7.208;2023-03-16T03:42:41;3.75;63.77
70830;SHT30;58451;51.550;7.208;2023-03-16T03:44:14;3.76;63.42
70830;SHT30;58451;51.550;7.208;2023-03-16T03:45:47;3.77;63.93
70830;SHT30;58451;51.550;7.208;2023-03-16T03:47:19;3.79;63.95
70830;SHT30;58451;51.550;7.208;2023-03-16T03:48:51;3.79;63.23
70830;SHT30;58451;51.550;7.208;2023-03-16T03:50:23;3.80;63.62
70830;SHT30;58451;51.550;7.208;2023-03-16T03:52:04;3.80;63.90
70830;SHT30;58451;51.550;7.208;2023-03-16T03:53:36;3.82;63.58
70830;SHT30;58451;51.550;7.208;2023-03-16T03:55:23;3.83;63.83
70830;SHT30;58451;51.550;7.208;2023-03-16T03:56:55;3.83;63.57
70830;SHT30;58451;51.550;7.208;2023-03-16T03:58:27;3.83;63.60
70830;SHT30;58451;51.550;7.208;2023-03-16T03:59:59;3.83;63.90
70830;SHT30;58451;51.550;7.208;2023-03-16T04:01:43;3.82;63.25
70830;SHT30;58451;51.550;7.208;2023-03-16T04:03:15;3.83;63.42
70830;SHT30;58451;51.550;7.208;2023-03-16T04:04:48;3.84;63.43
70830;SHT30;58451;51.550;7.208;2023-03-16T04:06:20;3.85;63.52
70830;SHT30;58451;51.550;7.208;2023-03-16T04:07:52;3.85;63.47
70830;SHT30;58451;51.550;7.208;2023-03-16T04:09:28;3.86;63.40
70830;SHT30;58451;51.550;7.208;2023-03-16T04:11:04;3.87;63.10
70830;SHT30;58451;51.550;7.208;2023-03-16T04:12:36;3.89;63.52
70830;SHT30;58451;51.550;7.208;2023-03-16T04:14:08;3.89;63.68
70830;SHT30;58451;51.550;7.208;2023-03-16T04:15:41;3.90;63.85
70830;SHT30;58451;51.550;7.208;2023-03-16T04:17:35;3.89;63.75
70830;SHT30;58451;51.550;7.208;2023-03-16T04:19:09;3.88;64.02
70830;SHT30;58451;51.550;7.208;2023-03-16T04:20:42;3.89;64.03
70830;SHT30;58451;51.550;7.208;2023-03-16T04:22:15;3.90;63.77
70830;SHT30;58451;51.550;7.208;2023-03-16T04:23:48;3.90;63.32
70830;SHT30;58451;51.550;7.208;2023-03-16T04:25:27;3.93;63.53
70830;SHT30;58451;51.550;7.208;2023-03-16T04:27:00;3.93;63.53
70830;SHT30;58451;51.550;7.208;2023-03-16T04:28:33;3.94;63.85
70830;SHT30;58451;51.550;7.208;2023-03-16T04:30:08;3.95;63.43
70830;SHT30;58451;51.550;7.208;2023-03-16T04:31:47;3.96;63.73
70830;SHT30;58451;51.550;7.208;2023-03-16T04:33:19;3.96;63.82
70830;SHT30;58451;51.550;7.208;2023-03-16T04:34:52;3.96;64.15
70830;SHT30;58451;51.550;7.208;2023-03-16T04:36:28;3.96;64.00
70830;SHT30;58451;51.550;7.208;2023-03-16T04:38:00;3.98;64.00
70830;SHT30;58451;51.550;7.208;2023-03-16T04:39:40;3.98;64.05
70830;SHT30;58451;51.550;7.208;2023-03-16T04:41:12;3.98;63.72
70830;SHT30;58451;51.550;7.208;2023-03-16T04:42:51;3.98;63.02
70830;SHT30;58451;51.550;7.208;2023-03-16T04:44:23;3.99;63.63
70830;SHT30;58451;51.550;7.208;2023-03-16T04:45:56;4.00;63.40
70830;SHT30;58451;51.550;7.208;2023-03-16T04:47:30;4.01;63.58
70830;SHT30;58451;51.550;7.208;2023-03-16T04:49:04;4.02;63.57
70830;SHT30;58451;51.550;7.208;2023-03-16T04:50:39;4.01;63.45
70830;SHT30;58451;51.550;7.208;2023-03-16T04:52:11;4.01;63.07
70830;SHT30;58451;51.550;7.208;2023-03-16T04:53:43;4.04;63.67
70830;SHT30;58451;51.550;7.208;2023-03-16T04:55:24;4.04;63.48
70830;SHT30;58451;51.550;7.208;2023-03-16T04:56:57;4.06;62.75
70830;SHT30;58451;51.550;7.208;2023-03-16T04:58:35;4.09;63.10
70830;SHT30;58451;51.550;7.208;2023-03-16T05:00:07;4.10;63.28
70830;SHT30;58451;51.550;7.208;2023-03-16T05:01:48;4.11;63.62
70830;SHT30;58451;51.550;7.208;2023-03-16T05:03:21;4.12;63.62
70830;SHT30;58451;51.550;7.208;2023-03-16T05:04:53;4.11;63.77
70830;SHT30;58451;51.550;7.208;2023-03-16T05:06:25;4.11;63.72
70830;SHT30;58451;51.550;7.208;2023-03-16T05:07:57;4.11;63.40
70830;SHT30;58451;51.550;7.208;2023-03-16T05:09:30;4.12;62.88
70830;SHT30;58451;51.550;7.208;2023-03-16T05:11:02;4.12;63.43
70830;SHT30;58451;51.550;7.208;2023-03-16T05:12:37;4.14;63.38
70830;SHT30;58451;51.550;7.208;2023-03-16T05:14:09;4.16;63.62
70830;SHT30;58451;51.550;7.208;2023-03-16T05:15:52;4.16;63.40
70830;SHT30;58451;51.550;7.208;2023-03-16T05:17:29;4.16;63.42
70830;SHT30;58451;51.550;7.208;2023-03-16T05:19:01;4.16;63.80
70830;SHT30;58451;51.550;7.208;2023-03-16T05:20:34;4.16;63.23
70830;SHT30;58451;51.550;7.208;2023-03-16T05:22:07;4.16;63.03
70830;SHT30;58451;51.550;7.208;2023-03-16T05:23:40;4.19;63.07
70830;SHT30;58451;51.550;7.208;2023-03-16T05:25:12;4.22;63.53
70830;SHT30;58451;51.550;7.208;2023-03-16T05:26:49;4.23;63.22
70830;SHT30;58451;51.550;7.208;2023-03-16T05:28:21;4.25;63.60
70830;SHT30;58451;51.550;7.208;2023-03-16T05:30:08;4.26;63.75
70830;SHT30;58451;51.550;7.208;2023-03-16T05:31:42;4.27;64.00
70830;SHT30;58451;51.550;7.208;2023-03-16T05:33:19;4.27;63.67
70830;SHT30;58451;51.550;7.208;2023-03-16T05:34:54;4.27;63.28
70830;SHT30;58451;51.550;7.208;2023-03-16T05:36:25;4.29;63.35
70830;SHT30;58451;51.550;7.208;2023-03-16T05:38:00;4.30;63.83
70830;SHT30;58451;51.550;7.208;2023-03-16T05:39:33;4.32;63.88
70830;SHT30;58451;51.550;7.208;2023-03-16T05:41:05;4.34;63.93
70830;SHT30;58451;51.550;7.208;2023-03-16T05:42:55;4.37;63.48
70830;SHT30;58451;51.550;7.208;2023-03-16T05:44:28;4.40;63.57
70830;SHT30;58451;51.550;7.208;2023-03-16T05:46:23;4.42;63.67
70830;SHT30;58451;51.550;7.208;2023-03-16T05:47:55;4.46;64.07
70830;SHT30;58451;51.550;7.208;2023-03-16T05:49:27;4.49;63.98
70830;SHT30;58451;51.550;7.208;2023-03-16T05:51:00;4.52;63.93
70830;SHT30;58451;51.550;7.208;2023-03-16T05:52:33;4.55;63.78
70830;SHT30;58451;51.550;7.208;2023-03-16T05:54:11;4.58;63.98
70830;SHT30;58451;51.550;7.208;2023-03-16T05:55:51;4.63;64.00
70830;SHT30;58451;51.550;7.208;2023-03-16T05:57:23;4.66;63.87
70830;SHT30;58451;51.550;7.208;2023-03-16T05:58:55;4.69;64.02
70830;SHT30;58451;51.550;7.208;2023-03-16T06:00:27;4.73;64.17
70830;SHT30;58451;51.550;7.208;2023-03-16T06:02:07;4.77;63.45
70830;SHT30;58451;51.550;7.208;2023-03-16T06:03:41;4.81;63.67
70830;SHT30;58451;51.550;7.208;2023-03-16T06:05:16;4.84;63.32
70830;SHT30;58451;51.550;7.208;2023-03-16T06:06:50;4.88;63.85
70830;SHT30;58451;51.550;7.208;2023-03-16T06:08:28;4.91;64.07
70830;SHT30;58451;51.550;7.208;2023-03-16T06:10:05;4.93;63.85
70830;SHT30;58451;51.550;7.208;2023-03-16T06:11:38;4.97;63.80
70830;SHT30;58451;51.550;7.208;2023-03-16T06:13:10;5.00;63.63
70830;SHT30;58451;51.550;7.208;2023-03-16T06:14:42;5.03;63.12
70830;SHT30;58451;51.550;7.208;2023-03-16T06:16:14;5.07;62.93
70830;SHT30;58451;51.550;7.208;2023-03-16T06:17:47;5.10;62.05
70830;SHT30;58451;51.550;7.208;2023-03-16T06:19:19;5.12;61.63
70830;SHT30;58451;51.550;7.208;2023-03-16T06:20:55;5.16;62.03
70830;SHT30;58451;51.550;7.208;2023-03-16T06:22:27;5.20;62.30
70830;SHT30;58451;51.550;7.208;2023-03-16T06:24:01;5.24;61.53
70830;SHT30;58451;51.550;7.208;2023-03-16T06:25:33;5.27;61.18
70830;SHT30;58451;51.550;7.208;2023-03-16T06:27:06;5.32;61.80
70830;SHT30;58451;51.550;7.208;2023-03-16T06:28:47;5.35;61.23
70830;SHT30;58451;51.550;7.208;2023-03-16T06:30:19;5.38;61.08
70830;SHT30;58451;51.550;7.208;2023-03-16T06:31:51;5.42;61.73
70830;SHT30;58451;51.550;7.208;2023-03-16T06:33:26;5.45;60.88
70830;SHT30;58451;51.550;7.208;2023-03-16T06:34:58;5.46;60.38
70830;SHT30;58451;51.550;7.208;2023-03-16T06:36:32;5.50;60.83
70830;SHT30;58451;51.550;7.208;2023-03-16T06:38:05;5.53;61.22
70830;SHT30;58451;51.550;7.208;2023-03-16T06:39:47;5.55;60.72
70830;SHT30;58451;51.550;7.208;2023-03-16T06:41:19;5.57;60.68
70830;SHT30;58451;51.550;7.208;2023-03-16T06:42:51;5.60;60.20
70830;SHT30;58451;51.550;7.208;2023-03-16T06:44:23;5.64;60.02
70830;SHT30;58451;51.550;7.208;2023-03-16T06:46:01;5.66;60.07
70830;SHT30;58451;51.550;7.208;2023-03-16T06:47:33;5.70;60.02
70830;SHT30;58451;51.550;7.208;2023-03-16T06:49:06;5.77;60.20
70830;SHT30;58451;51.550;7.208;2023-03-16T06:50:38;5.84;60.20
70830;SHT30;58451;51.550;7.208;2023-03-16T06:52:10;5.88;59.93
70830;SHT30;58451;51.550;7.208;2023-03-16T06:53:44;5.94;59.38
70830;SHT30;58451;51.550;7.208;2023-03-16T06:55:16;6.03;59.88
70830;SHT30;58451;51.550;7.208;2023-03-16T06:56:49;6.11;60.12
70830;SHT30;58451;51.550;7.208;2023-03-16T06:58:22;6.20;59.67
70830;SHT30;58451;51.550;7.208;2023-03-16T06:59:54;6.32;59.73
70830;SHT30;58451;51.550;7.208;2023-03-16T07:01:26;6.42;60.15
70830;SHT30;58451;51.550;7.208;2023-03-16T07:02:59;6.47;58.08
70830;SHT30;58451;51.550;7.208;2023-03-16T07:04:32;6.53;58.27
70830;SHT30;58451;51.550;7.208;2023-03-16T07:06:04;6.59;59.03
70830;SHT30;58451;51.550;7.208;2023-03-16T07:07:36;6.63;58.32
70830;SHT30;58451;51.550;7.208;2023-03-16T07:09:08;6.64;57.88
70830;SHT30;58451;51.550;7.208;2023-03-16T07:10:40;6.65;57.47
70830;SHT30;58451;51.550;7.208;2023-03-16T07:12:12;6.68;58.12
70830;SHT30;58451;51.550;7.208;2023-03-16T07:13:44;6.72;58.88
70830;SHT30;58451;51.550;7.208;2023-03-16T07:15:16;6.76;58.67
70830;SHT30;58451;51.550;7.208;2023-03-16T07:16:49;6.76;56.68
70830;SHT30;58451;51.550;7.208;2023-03-16T07:18:21;6.78;56.53
70830;SHT30;58451;51.550;7.208;2023-03-16T07:19:53;6.76;56.48
70830;SHT30;58451;51.550;7.208;2023-03-16T07:21:25;6.82;56.67
70830;SHT30;58451;51.550;7.208;2023-03-16T07:22:57;6.88;56.80
70830;SHT30;58451;51.550;7.208;2023-03-16T07:24:29;6.91;56.20
70830;SHT30;58451;51.550;7.208;2023-03-16T07:26:03;6.94;55.80
70830;SHT30;58451;51.550;7.208;2023-03-16T07:27:35;6.99;56.42
70830;SHT30;58451;51.550;7.208;2023-03-16T07:29:09;7.01;55.53
70830;SHT30;58451;51.550;7.208;2023-03-16T07:30:43;7.06;56.33
70830;SHT30;58451;51.550;7.208;2023-03-16T07:32:33;7.14;56.18
70830;SHT30;58451;51.550;7.208;2023-03-16T07:34:06;7.18;55.88
70830;SHT30;58451;51.550;7.208;2023-03-16T07:35:42;7.26;55.52
70830;SHT30;58451;51.550;7.208;2023-03-16T07:37:14;7.34;55.78
70830;SHT30;58451;51.550;7.208;2023-03-16T07:38:56;7.49;56.32
70830;SHT30;58451;51.550;7.208;2023-03-16T07:40:28;7.63;56.13
70830;SHT30;58451;51.550;7.208;2023-03-16T07:42:07;7.74;54.75
70830;SHT30;58451;51.550;7.208;2023-03-16T07:43:51;7.82;54.82
70830;SHT30;58451;51.550;7.208;2023-03-16T07:45:26;7.83;52.90
70830;SHT30;58451;51.550;7.208;2023-03-16T07:46:59;7.85;53.00
70830;SHT30;58451;51.550;7.208;2023-03-16T07:48:32;7.97;54.27
70830;SHT30;58451;51.550;7.208;2023-03-16T07:50:06;8.07;54.30
70830;SHT30;58451;51.550;7.208;2023-03-16T07:51:39;8.13;53.98
70830;SHT30;58451;51.550;7.208;2023-03-16T07:53:12;8.12;52.37
70830;SHT30;58451;51.550;7.208;2023-03-16T07:54:46;8.23;54.18
70830;SHT30;58451;51.550;7.208;2023-03-16T07:56:19;8.31;53.85
70830;SHT30;58451;51.550;7.208;2023-03-16T07:57:55;8.37;53.18
70830;SHT30;58451;51.550;7.208;2023-03-16T07:59:31;8.45;53.72
70830;SHT30;58451;51.550;7.208;2023-03-16T08:01:03;8.53;52.78
70830;SHT30;58451;51.550;7.208;2023-03-16T08:02:35;8.55;52.28
70830;SHT30;58451;51.550;7.208;2023-03-16T08:04:09;8.64;53.13
70830;SHT30;58451;51.550;7.208;2023-03-16T08:05:42;8.72;52.03
70830;SHT30;58451;51.550;7.208;2023-03-16T08:07:17;8.81;52.37
70830;SHT30;58451;51.550;7.208;2023-03-16T08:08:59;8.90;52.10
70830;SHT30;58451;51.550;7.208;2023-03-16T08:10:36;9.01;52.70
70830;SHT30;58451;51.550;7.208;2023-03-16T08:12:16;9.07;51.12
70830;SHT30;58451;51.550;7.208;2023-03-16T08:13:48;9.10;51.35
70830;SHT30;58451;51.550;7.208;2023-03-16T08:15:24;9.18;51.53
70830;SHT30;58451;51.550;7.208;2023-03-16T08:17:02;9.22;51.07
70830;SHT30;58451;51.550;7.208;2023-03-16T08:18:37;9.27;50.72
70830;SHT30;58451;51.550;7.208;2023-03-16T08:20:09;9.38;51.17
70830;SHT30;58451;51.550;7.208;2023-03-16T08:21:45;9.47;51.22
70830;SHT30;58451;51.550;7.208;2023-03-16T08:23:34;9.55;50.45
70830;SHT30;58451;51.550;7.208;2023-03-16T08:25:07;9.60;50.38
70830;SHT30;58451;51.550;7.208;2023-03-16T08:26:45;9.55;49.62
70830;SHT30;58451;51.550;7.208;2023-03-16T08:28:18;9.49;49.22
70830;SHT30;58451;51.550;7.208;2023-03-16T08:29:52;9.50;49.50
70830;SHT30;58451;51.550;7.208;2023-03-16T08:31:26;9.56;50.22
70830;SHT30;58451;51.550;7.208;2023-03-16T08:33:05;9.65;50.60
70830;SHT30;58451;51.550;7.208;2023-03-16T08:34:36;9.71;51.18
70830;SHT30;58451;51.550;7.208;2023-03-16T08:36:12;9.66;48.87
70830;SHT30;58451;51.550;7.208;2023-03-16T08:37:51;9.67;49.42
70830;SHT30;58451;51.550;7.208;2023-03-16T08:39:24;9.70;49.47
70830;SHT30;58451;51.550;7.208;2023-03-16T08:40:56;9.70;48.68
70830;SHT30;58451;51.550;7.208;2023-03-16T08:42:29;9.69;48.90
70830;SHT30;58451;51.550;7.208;2023-03-16T08:44:04;9.77;49.48
70830;SHT30;58451;51.550;7.208;2023-03-16T08:45:38;9.82;49.03
70830;SHT30;58451;51.550;7.208;2023-03-16T08:47:09;9.88;48.12
70830;SHT30;58451;51.550;7.208;2023-03-16T08:48:43;9.97;49.27
70830;SHT30;58451;51.550;7.208;2023-03-16T08:50:15;10.07;49.78
70830;SHT30;58451;51.550;7.208;2023-03-16T08:51:47;10.14;49.85
70830;SHT30;58451;51.550;7.208;2023-03-16T08:53:20;10.15;49.58
70830;SHT30;58451;51.550;7.208;2023-03-16T08:54:51;10.08;48.03
70830;SHT30;58451;51.550;7.208;2023-03-16T08:56:34;9.98;47.62
70830;SHT30;58451;51.550;7.208;2023-03-16T08:58:09;9.90;47.65
70830;SHT30;58451;51.550;7.208;2023-03-16T08:59:42;9.84;49.02
70830;SHT30;58451;51.550;7.208;2023-03-16T09:01:15;9.79;49.25
70830;SHT30;58451;51.550;7.208;2023-03-16T09:02:49;9.74;49.27
70830;SHT30;58451;51.550;7.208;2023-03-16T09:04:21;9.71;49.12
70830;SHT30;58451;51.550;7.208;2023-03-16T09:05:59;9.63;48.42
70830;SHT30;58451;51.550;7.208;2023-03-16T09:07:34;9.54;48.53
70830;SHT30;58451;51.550;7.208;2023-03-16T09:09:06;9.47;48.47
70830;SHT30;58451;51.550;7.208;2023-03-16T09:10:40;9.40;48.90
70830;SHT30;58451;51.550;7.208;2023-03-16T09:12:12;9.37;49.83
70830;SHT30;58451;51.550;7.208;2023-03-16T09:13:44;9.37;50.13
70830;SHT30;58451;51.550;7.208;2023-03-16T09:15:18;9.39;50.50
70830;SHT30;58451;51.550;7.208;2023-03-16T09:16:51;9.40;50.10
70830;SHT30;58451;51.550;7.208;2023-03-16T09:18:23;9.39;50.55
70830;SHT30;58451;51.550;7.208;2023-03-16T09:19:57;9.36;49.68
70830;SHT30;58451;51.550;7.208;2023-03-16T09:21:45;9.30;49.12
70830;SHT30;58451;51.550;7.208;2023-03-16T09:23:17;9.32;49.88
70830;SHT30;58451;51.550;7.208;2023-03-16T09:24:51;9.36;50.32
70830;SHT30;58451;51.550;7.208;2023-03-16T09:26:23;9.40;50.20
70830;SHT30;58451;51.550;7.208;2023-03-16T09:27:54;9.44;50.70
70830;SHT30;58451;51.550;7.208;2023-03-16T09:29:26;9.44;50.35
70830;SHT30;58451;51.550;7.208;2023-03-16T09:30:58;9.50;50.70
70830;SHT30;58451;51.550;7.208;2023-03-16T09:32:32;9.47;49.23
70830;SHT30;58451;51.550;7.208;2023-03-16T09:34:05;9.48;50.03
70830;SHT30;58451;51.550;7.208;2023-03-16T09:35:37;9.49;49.82
70830;SHT30;58451;51.550;7.208;2023-03-16T09:37:09;9.42;49.28
70830;SHT30;58451;51.550;7.208;2023-03-16T09:38:41;9.45;48.92
70830;SHT30;58451;51.550;7.208;2023-03-16T09:40:24;9.58;50.00
70830;SHT30;58451;51.550;7.208;2023-03-16T09:43:53;9.92;49.73
70830;SHT30;58451;51.550;7.208;2023-03-16T09:45:46;10.18;49.77
70830;SHT30;58451;51.550;7.208;2023-03-16T09:48:05;10.46;47.62
70830;SHT30;58451;51.550;7.208;2023-03-16T09:49:45;10.62;48.37
70830;SHT30;58451;51.550;7.208;2023-03-16T09:53:27;11.15;47.80
70830;SHT30;58451;51.550;7.208;2023-03-16T09:57:02;11.46;46.18
70830;SHT30;58451;51.550;7.208;2023-03-16T09:58:35;11.48;46.13
70830;SHT30;58451;51.550;7.208;2023-03-16T10:05:38;11.61;45.93
70830;SHT30;58451;51.550;7.208;2023-03-16T10:09:30;11.55;45.47
70830;SHT30;58451;51.550;7.208;2023-03-16T10:15:18;11.91;45.53
70830;SHT30;58451;51.550;7.208;2023-03-16T10:17:01;11.99;45.60
70830;SHT30;58451;51.550;7.208;2023-03-16T10:18:44;12.09;45.72
70830;SHT30;58451;51.550;7.208;2023-03-16T10:20:21;12.15;45.68
70830;SHT30;58451;51.550;7.208;2023-03-16T10:21:55;12.18;45.70
70830;SHT30;58451;51.550;7.208;2023-03-16T10:23:31;12.21;46.05
70830;SHT30;58451;51.550;7.208;2023-03-16T10:25:18;12.22;45.15
70830;SHT30;58451;51.550;7.208;2023-03-16T10:26:57;12.26;46.27
70830;SHT30;58451;51.550;7.208;2023-03-16T10:28:30;12.28;46.37
70830;SHT30;58451;51.550;7.208;2023-03-16T10:30:49;12.32;46.10
70830;SHT30;58451;51.550;7.208;2023-03-16T10:32:13;12.29;45.75
70830;SHT30;58451;51.550;7.208;2023-03-16T10:33:53;12.28;46.15
70830;SHT30;58451;51.550;7.208;2023-03-16T10:35:48;12.26;46.45
70830;SHT30;58451;51.550;7.208;2023-03-16T10:37:24;12.23;46.35
70830;SHT30;58451;51.550;7.208;2023-03-16T10:40:42;12.31;47.42
70830;SHT30;58451;51.550;7.208;2023-03-16T10:42:15;12.39;47.52
70830;SHT30;58451;51.550;7.208;2023-03-16T10:43:51;12.43;47.30
70830;SHT30;58451;51.550;7.208;2023-03-16T10:45:28;12.40;46.20
70830;SHT30;58451;51.550;7.208;2023-03-16T10:47:04;12.23;45.35
70830;SHT30;58451;51.550;7.208;2023-03-16T10:48:38;12.24;46.60
70830;SHT30;58451;51.550;7.208;2023-03-16T10:50:11;12.11;45.52